This is the latest recevied weather packets stored in our database for station/object DL1VED. If no packets are shown the sender has not sent any weather packets the latest 10 day(s).
| Time | Temp. | Humidity | Pressure | Rain* | Wind** | Luminosity | Snow |
|---|---|---|---|---|---|---|---|
| 1778181245 | 12.22° C | 75% | 1015.7 hPa | 0 mm | - | - | - |
| 1778180345 | 12.78° C | 73% | 1015.7 hPa | 0 mm | - | - | - |
| 1778179445 | 13.33° C | 72% | 1015.6 hPa | 0 mm | - | - | - |
| 1778178545 | 13.33° C | 70% | 1015.5 hPa | 0 mm | - | - | - |
| 1778177645 | 13.89° C | 70% | 1015.4 hPa | 0 mm | - | - | - |
| 1778176745 | 14.44° C | 66% | 1015.4 hPa | 0 mm | - | - | - |
| 1778175845 | 15° C | 63% | 1015.2 hPa | 0 mm | - | - | - |
| 1778174945 | 15.56° C | 58% | 1015.2 hPa | 0 mm | - | - | - |
| 1778174045 | 15.56° C | 57% | 1015.1 hPa | 0 mm | - | - | - |
| 1778173145 | 15.56° C | 56% | 1015.1 hPa | 0 mm | - | - | - |
| 1778172245 | 16.11° C | 57% | 1015 hPa | 0 mm | - | - | - |
| 1778171345 | 16.11° C | 59% | 1015.1 hPa | 0 mm | - | - | - |
| 1778170445 | 15.56° C | 59% | 1015.1 hPa | 0 mm | - | - | - |
| 1778169545 | 15° C | 60% | 1015.1 hPa | 0 mm | - | - | - |
| 1778168645 | 14.44° C | 62% | 1015.1 hPa | 0 mm | - | - | - |
| 1778167745 | 15° C | 60% | 1015.2 hPa | 0 mm | - | - | - |
| 1778166845 | 15° C | 59% | 1015.2 hPa | 0 mm | - | - | - |
| 1778165945 | 15° C | 59% | 1015.2 hPa | 0 mm | - | - | - |
| 1778165045 | 15° C | 59% | 1015.2 hPa | 0 mm | - | - | - |
| 1778164145 | 15° C | 58% | 1015.1 hPa | 0 mm | - | - | - |
| 1778163245 | 15.56° C | 59% | 1015.1 hPa | 0 mm | - | - | - |
| 1778162345 | 15.56° C | 58% | 1015.2 hPa | 0 mm | - | - | - |
| 1778161445 | 15.56° C | 58% | 1015.2 hPa | 0 mm | - | - | - |
| 1778160545 | 15° C | 59% | 1015.2 hPa | 0 mm | - | - | - |
| 1778159645 | 15° C | 62% | 1015.3 hPa | 0 mm | - | - | - |
* Rain latest hour (hover to see other rain measurements)
** Current wind speed in m/s (hover to see current wind gust speed)